sensor_id;sensor_type;location;lat;lon;timestamp;P1;durP1;ratioP1;P2;durP2;ratioP2
23140;SDS011;11739;54.750;9.124;2022-08-11T00:00:56;2.88;;;2.50;;
23140;SDS011;11739;54.750;9.124;2022-08-11T00:03:23;3.85;;;3.28;;
23140;SDS011;11739;54.750;9.124;2022-08-11T00:06:08;3.55;;;3.13;;
23140;SDS011;11739;54.750;9.124;2022-08-11T00:08:35;3.33;;;3.03;;
23140;SDS011;11739;54.750;9.124;2022-08-11T00:11:04;2.72;;;2.42;;
23140;SDS011;11739;54.750;9.124;2022-08-11T00:13:37;2.53;;;2.33;;
23140;SDS011;11739;54.750;9.124;2022-08-11T00:16:14;5.32;;;3.72;;
23140;SDS011;11739;54.750;9.124;2022-08-11T00:18:43;3.75;;;3.45;;
23140;SDS011;11739;54.750;9.124;2022-08-11T00:21:12;4.60;;;3.10;;
23140;SDS011;11739;54.750;9.124;2022-08-11T00:23:51;3.05;;;2.63;;
23140;SDS011;11739;54.750;9.124;2022-08-11T00:26:22;3.30;;;3.00;;
23140;SDS011;11739;54.750;9.124;2022-08-11T00:29:06;5.03;;;3.15;;
23140;SDS011;11739;54.750;9.124;2022-08-11T00:31:49;4.55;;;2.60;;
23140;SDS011;11739;54.750;9.124;2022-08-11T00:34:37;3.22;;;2.97;;
23140;SDS011;11739;54.750;9.124;2022-08-11T00:37:05;3.50;;;3.10;;
23140;SDS011;11739;54.750;9.124;2022-08-11T00:39:45;4.03;;;3.13;;
23140;SDS011;11739;54.750;9.124;2022-08-11T00:45:16;3.45;;;2.85;;
23140;SDS011;11739;54.750;9.124;2022-08-11T00:50:48;3.47;;;3.17;;
23140;SDS011;11739;54.750;9.124;2022-08-11T00:53:32;3.20;;;3.00;;
23140;SDS011;11739;54.750;9.124;2022-08-11T01:04:45;3.08;;;2.83;;
23140;SDS011;11739;54.750;9.124;2022-08-11T01:27:20;5.97;;;3.80;;
23140;SDS011;11739;54.750;9.124;2022-08-11T01:30:36;3.00;;;2.70;;
23140;SDS011;11739;54.750;9.124;2022-08-11T01:48:04;2.63;;;2.42;;
23140;SDS011;11739;54.750;9.124;2022-08-11T01:53:46;2.50;;;2.30;;
23140;SDS011;11739;54.750;9.124;2022-08-11T01:56:36;3.13;;;2.80;;
23140;SDS011;11739;54.750;9.124;2022-08-11T01:59:16;2.60;;;2.40;;
23140;SDS011;11739;54.750;9.124;2022-08-11T02:05:16;2.70;;;2.50;;
23140;SDS011;11739;54.750;9.124;2022-08-11T02:13:39;2.70;;;2.20;;
23140;SDS011;11739;54.750;9.124;2022-08-11T02:18:47;3.15;;;2.38;;
23140;SDS011;11739;54.750;9.124;2022-08-11T02:21:51;3.53;;;2.70;;
23140;SDS011;11739;54.750;9.124;2022-08-11T02:24:43;2.63;;;2.42;;
23140;SDS011;11739;54.750;9.124;2022-08-11T02:27:17;2.03;;;1.92;;
23140;SDS011;11739;54.750;9.124;2022-08-11T02:29:50;1.63;;;1.52;;
23140;SDS011;11739;54.750;9.124;2022-08-11T02:32:35;1.90;;;1.80;;
23140;SDS011;11739;54.750;9.124;2022-08-11T02:38:25;2.70;;;2.50;;
23140;SDS011;11739;54.750;9.124;2022-08-11T02:46:56;2.00;;;1.75;;
23140;SDS011;11739;54.750;9.124;2022-08-11T02:49:36;3.08;;;2.38;;
23140;SDS011;11739;54.750;9.124;2022-08-11T02:52:35;3.13;;;2.63;;
23140;SDS011;11739;54.750;9.124;2022-08-11T03:00:46;2.75;;;2.20;;
23140;SDS011;11739;54.750;9.124;2022-08-11T03:03:24;3.85;;;2.45;;
23140;SDS011;11739;54.750;9.124;2022-08-11T03:06:18;3.35;;;2.20;;
23140;SDS011;11739;54.750;9.124;2022-08-11T03:12:15;2.58;;;2.30;;
23140;SDS011;11739;54.750;9.124;2022-08-11T03:20:39;2.78;;;2.58;;
23140;SDS011;11739;54.750;9.124;2022-08-11T03:28:37;3.70;;;3.35;;
23140;SDS011;11739;54.750;9.124;2022-08-11T03:34:15;3.53;;;2.90;;
23140;SDS011;11739;54.750;9.124;2022-08-11T03:43:15;3.45;;;2.70;;
23140;SDS011;11739;54.750;9.124;2022-08-11T03:46:31;2.50;;;2.30;;
23140;SDS011;11739;54.750;9.124;2022-08-11T03:51:55;3.25;;;2.97;;
23140;SDS011;11739;54.750;9.124;2022-08-11T03:57:23;3.63;;;3.25;;
23140;SDS011;11739;54.750;9.124;2022-08-11T04:03:24;3.95;;;3.55;;
23140;SDS011;11739;54.750;9.124;2022-08-11T04:20:18;11.88;;;9.15;;
23140;SDS011;11739;54.750;9.124;2022-08-11T04:23:00;10.35;;;9.30;;
23140;SDS011;11739;54.750;9.124;2022-08-11T04:28:53;11.10;;;9.73;;
23140;SDS011;11739;54.750;9.124;2022-08-11T04:31:35;9.00;;;7.80;;
23140;SDS011;11739;54.750;9.124;2022-08-11T04:37:17;7.95;;;7.22;;
23140;SDS011;11739;54.750;9.124;2022-08-11T04:46:37;8.02;;;7.25;;
23140;SDS011;11739;54.750;9.124;2022-08-11T04:55:52;13.07;;;11.38;;
23140;SDS011;11739;54.750;9.124;2022-08-11T04:58:55;13.38;;;11.77;;
23140;SDS011;11739;54.750;9.124;2022-08-11T05:04:55;16.10;;;12.98;;
23140;SDS011;11739;54.750;9.124;2022-08-11T05:13:51;18.65;;;14.55;;
23140;SDS011;11739;54.750;9.124;2022-08-11T05:16:52;15.43;;;13.77;;
23140;SDS011;11739;54.750;9.124;2022-08-11T05:19:44;16.10;;;14.50;;
23140;SDS011;11739;54.750;9.124;2022-08-11T05:22:30;16.48;;;14.05;;
23140;SDS011;11739;54.750;9.124;2022-08-11T05:25:16;15.77;;;13.88;;
23140;SDS011;11739;54.750;9.124;2022-08-11T05:28:29;17.55;;;14.88;;
23140;SDS011;11739;54.750;9.124;2022-08-11T05:31:17;14.23;;;12.82;;
23140;SDS011;11739;54.750;9.124;2022-08-11T05:34:17;14.27;;;12.05;;
23140;SDS011;11739;54.750;9.124;2022-08-11T05:39:52;11.65;;;10.55;;
23140;SDS011;11739;54.750;9.124;2022-08-11T05:42:42;10.48;;;9.05;;
23140;SDS011;11739;54.750;9.124;2022-08-11T05:45:33;10.32;;;9.35;;
23140;SDS011;11739;54.750;9.124;2022-08-11T05:48:33;9.75;;;8.55;;
23140;SDS011;11739;54.750;9.124;2022-08-11T05:51:19;9.02;;;8.23;;
23140;SDS011;11739;54.750;9.124;2022-08-11T05:54:20;11.70;;;7.97;;
23140;SDS011;11739;54.750;9.124;2022-08-11T05:57:07;9.57;;;8.68;;
23140;SDS011;11739;54.750;9.124;2022-08-11T05:59:33;8.68;;;7.78;;
23140;SDS011;11739;54.750;9.124;2022-08-11T06:02:01;8.45;;;7.70;;
23140;SDS011;11739;54.750;9.124;2022-08-11T06:04:31;8.43;;;7.40;;
23140;SDS011;11739;54.750;9.124;2022-08-11T06:06:58;7.93;;;7.22;;
23140;SDS011;11739;54.750;9.124;2022-08-11T06:09:27;8.82;;;8.00;;
23140;SDS011;11739;54.750;9.124;2022-08-11T06:12:05;7.05;;;6.45;;
23140;SDS011;11739;54.750;9.124;2022-08-11T06:14:42;7.28;;;6.60;;
23140;SDS011;11739;54.750;9.124;2022-08-11T06:17:10;6.80;;;6.10;;
23140;SDS011;11739;54.750;9.124;2022-08-11T06:19:37;7.05;;;6.30;;
23140;SDS011;11739;54.750;9.124;2022-08-11T06:22:07;7.93;;;5.50;;
23140;SDS011;11739;54.750;9.124;2022-08-11T06:24:36;7.88;;;6.10;;
23140;SDS011;11739;54.750;9.124;2022-08-11T06:27:05;5.80;;;5.20;;
23140;SDS011;11739;54.750;9.124;2022-08-11T06:29:45;6.07;;;5.30;;
23140;SDS011;11739;54.750;9.124;2022-08-11T06:32:25;5.82;;;5.22;;
23140;SDS011;11739;54.750;9.124;2022-08-11T06:38:01;7.72;;;5.60;;
23140;SDS011;11739;54.750;9.124;2022-08-11T06:40:45;5.57;;;4.95;;
23140;SDS011;11739;54.750;9.124;2022-08-11T06:43:44;6.43;;;4.85;;
23140;SDS011;11739;54.750;9.124;2022-08-11T06:46:25;6.05;;;4.97;;
23140;SDS011;11739;54.750;9.124;2022-08-11T06:48:54;6.50;;;4.45;;
23140;SDS011;11739;54.750;9.124;2022-08-11T06:51:21;4.55;;;4.15;;
23140;SDS011;11739;54.750;9.124;2022-08-11T06:53:52;5.28;;;3.88;;
23140;SDS011;11739;54.750;9.124;2022-08-11T06:56:34;4.57;;;3.92;;
23140;SDS011;11739;54.750;9.124;2022-08-11T06:59:40;7.22;;;4.40;;
23140;SDS011;11739;54.750;9.124;2022-08-11T07:02:27;4.22;;;3.83;;
23140;SDS011;11739;54.750;9.124;2022-08-11T07:13:58;6.80;;;4.63;;
23140;SDS011;11739;54.750;9.124;2022-08-11T07:16:46;6.80;;;3.58;;
23140;SDS011;11739;54.750;9.124;2022-08-11T07:19:14;5.20;;;3.45;;
23140;SDS011;11739;54.750;9.124;2022-08-11T07:22:01;8.30;;;3.13;;
23140;SDS011;11739;54.750;9.124;2022-08-11T07:25:30;4.03;;;3.03;;
23140;SDS011;11739;54.750;9.124;2022-08-11T07:28:32;4.88;;;3.05;;
23140;SDS011;11739;54.750;9.124;2022-08-11T07:31:17;3.92;;;2.78;;
23140;SDS011;11739;54.750;9.124;2022-08-11T07:33:58;3.65;;;2.33;;
23140;SDS011;11739;54.750;9.124;2022-08-11T07:36:41;2.65;;;1.90;;
23140;SDS011;11739;54.750;9.124;2022-08-11T07:39:15;2.72;;;1.98;;
23140;SDS011;11739;54.750;9.124;2022-08-11T07:41:46;3.38;;;1.80;;
23140;SDS011;11739;54.750;9.124;2022-08-11T07:44:14;2.55;;;1.55;;
23140;SDS011;11739;54.750;9.124;2022-08-11T07:46:43;2.75;;;1.60;;
23140;SDS011;11739;54.750;9.124;2022-08-11T07:49:30;1.90;;;1.40;;
23140;SDS011;11739;54.750;9.124;2022-08-11T07:52:15;2.47;;;1.60;;
23140;SDS011;11739;54.750;9.124;2022-08-11T07:54:52;3.55;;;1.40;;
23140;SDS011;11739;54.750;9.124;2022-08-11T07:57:19;2.55;;;1.42;;
23140;SDS011;11739;54.750;9.124;2022-08-11T08:00:27;2.85;;;1.80;;
23140;SDS011;11739;54.750;9.124;2022-08-11T08:03:17;2.45;;;1.70;;
23140;SDS011;11739;54.750;9.124;2022-08-11T08:06:02;4.88;;;1.60;;
23140;SDS011;11739;54.750;9.124;2022-08-11T08:09:01;3.75;;;1.77;;
23140;SDS011;11739;54.750;9.124;2022-08-11T08:11:48;4.50;;;1.40;;
23140;SDS011;11739;54.750;9.124;2022-08-11T08:14:33;3.95;;;1.50;;
23140;SDS011;11739;54.750;9.124;2022-08-11T08:17:19;3.50;;;1.65;;
23140;SDS011;11739;54.750;9.124;2022-08-11T08:20:06;3.05;;;1.67;;
23140;SDS011;11739;54.750;9.124;2022-08-11T08:22:37;1.70;;;1.45;;
23140;SDS011;11739;54.750;9.124;2022-08-11T08:25:06;1.40;;;1.30;;
23140;SDS011;11739;54.750;9.124;2022-08-11T08:27:34;2.15;;;1.50;;
23140;SDS011;11739;54.750;9.124;2022-08-11T08:30:01;2.65;;;1.40;;
23140;SDS011;11739;54.750;9.124;2022-08-11T08:32:47;5.13;;;1.67;;
23140;SDS011;11739;54.750;9.124;2022-08-11T08:35:15;2.95;;;1.40;;
23140;SDS011;11739;54.750;9.124;2022-08-11T08:37:45;2.47;;;1.65;;
23140;SDS011;11739;54.750;9.124;2022-08-11T08:40:13;3.47;;;1.60;;
23140;SDS011;11739;54.750;9.124;2022-08-11T08:42:50;2.15;;;1.20;;
23140;SDS011;11739;54.750;9.124;2022-08-11T08:45:20;3.08;;;1.17;;
23140;SDS011;11739;54.750;9.124;2022-08-11T08:47:50;2.30;;;1.40;;
23140;SDS011;11739;54.750;9.124;2022-08-11T08:50:20;1.92;;;1.35;;
23140;SDS011;11739;54.750;9.124;2022-08-11T08:52:59;2.45;;;1.20;;
23140;SDS011;11739;54.750;9.124;2022-08-11T08:55:29;1.80;;;1.50;;
23140;SDS011;11739;54.750;9.124;2022-08-11T08:57:55;2.13;;;1.50;;
23140;SDS011;11739;54.750;9.124;2022-08-11T09:00:27;3.05;;;1.50;;
23140;SDS011;11739;54.750;9.124;2022-08-11T09:03:04;2.92;;;1.35;;
23140;SDS011;11739;54.750;9.124;2022-08-11T09:05:52;3.33;;;1.25;;
23140;SDS011;11739;54.750;9.124;2022-08-11T09:08:20;1.27;;;1.10;;
23140;SDS011;11739;54.750;9.124;2022-08-11T09:10:47;3.10;;;1.30;;
23140;SDS011;11739;54.750;9.124;2022-08-11T09:13:39;2.53;;;1.50;;
23140;SDS011;11739;54.750;9.124;2022-08-11T09:16:09;1.95;;;1.25;;
23140;SDS011;11739;54.750;9.124;2022-08-11T09:18:36;2.42;;;1.58;;
23140;SDS011;11739;54.750;9.124;2022-08-11T09:21:03;2.75;;;1.75;;
23140;SDS011;11739;54.750;9.124;2022-08-11T09:23:30;2.05;;;1.50;;
23140;SDS011;11739;54.750;9.124;2022-08-11T09:26:34;1.50;;;1.40;;
23140;SDS011;11739;54.750;9.124;2022-08-11T09:29:21;1.65;;;1.40;;
23140;SDS011;11739;54.750;9.124;2022-08-11T09:31:48;4.90;;;1.42;;
23140;SDS011;11739;54.750;9.124;2022-08-11T09:34:14;4.55;;;1.40;;
23140;SDS011;11739;54.750;9.124;2022-08-11T09:36:42;1.60;;;1.50;;
23140;SDS011;11739;54.750;9.124;2022-08-11T09:39:28;2.60;;;1.42;;
23140;SDS011;11739;54.750;9.124;2022-08-11T09:42:14;3.38;;;1.52;;
23140;SDS011;11739;54.750;9.124;2022-08-11T09:44:48;2.10;;;1.48;;
23140;SDS011;11739;54.750;9.124;2022-08-11T09:47:17;1.88;;;1.35;;
23140;SDS011;11739;54.750;9.124;2022-08-11T09:49:46;2.50;;;1.40;;
23140;SDS011;11739;54.750;9.124;2022-08-11T09:52:14;1.85;;;1.48;;
23140;SDS011;11739;54.750;9.124;2022-08-11T09:54:41;2.88;;;1.33;;
23140;SDS011;11739;54.750;9.124;2022-08-11T09:57:13;3.17;;;1.23;;
23140;SDS011;11739;54.750;9.124;2022-08-11T09:59:59;3.40;;;1.38;;
23140;SDS011;11739;54.750;9.124;2022-08-11T10:02:39;2.40;;;1.50;;
23140;SDS011;11739;54.750;9.124;2022-08-11T10:05:09;1.65;;;1.35;;
23140;SDS011;11739;54.750;9.124;2022-08-11T10:07:55;5.07;;;1.30;;
23140;SDS011;11739;54.750;9.124;2022-08-11T10:10:22;1.88;;;1.23;;
23140;SDS011;11739;54.750;9.124;2022-08-11T10:12:51;1.80;;;1.30;;
23140;SDS011;11739;54.750;9.124;2022-08-11T10:15:23;3.53;;;1.30;;
23140;SDS011;11739;54.750;9.124;2022-08-11T10:18:29;3.35;;;1.30;;
23140;SDS011;11739;54.750;9.124;2022-08-11T10:21:09;2.20;;;1.40;;
23140;SDS011;11739;54.750;9.124;2022-08-11T10:23:39;3.08;;;1.63;;
23140;SDS011;11739;54.750;9.124;2022-08-11T10:26:30;2.75;;;1.30;;
23140;SDS011;11739;54.750;9.124;2022-08-11T10:29:22;2.40;;;1.30;;
23140;SDS011;11739;54.750;9.124;2022-08-11T10:32:21;1.92;;;1.30;;
23140;SDS011;11739;54.750;9.124;2022-08-11T10:35:25;4.00;;;1.30;;
23140;SDS011;11739;54.750;9.124;2022-08-11T10:37:53;1.55;;;1.42;;
23140;SDS011;11739;54.750;9.124;2022-08-11T10:40:36;2.63;;;1.38;;
23140;SDS011;11739;54.750;9.124;2022-08-11T10:43:04;1.58;;;1.10;;
23140;SDS011;11739;54.750;9.124;2022-08-11T10:45:34;3.28;;;1.30;;
23140;SDS011;11739;54.750;9.124;2022-08-11T10:48:21;1.95;;;1.30;;
23140;SDS011;11739;54.750;9.124;2022-08-11T10:50:50;1.85;;;1.42;;
23140;SDS011;11739;54.750;9.124;2022-08-11T10:53:35;2.08;;;1.30;;
23140;SDS011;11739;54.750;9.124;2022-08-11T10:56:22;1.90;;;1.67;;
23140;SDS011;11739;54.750;9.124;2022-08-11T10:59:08;3.95;;;1.30;;
23140;SDS011;11739;54.750;9.124;2022-08-11T11:01:42;1.85;;;1.40;;
23140;SDS011;11739;54.750;9.124;2022-08-11T11:04:14;1.95;;;1.30;;
23140;SDS011;11739;54.750;9.124;2022-08-11T11:06:47;2.38;;;1.15;;
23140;SDS011;11739;54.750;9.124;2022-08-11T11:12:09;1.58;;;1.30;;
23140;SDS011;11739;54.750;9.124;2022-08-11T11:14:57;1.42;;;1.20;;
23140;SDS011;11739;54.750;9.124;2022-08-11T11:17:53;1.67;;;1.40;;
23140;SDS011;11739;54.750;9.124;2022-08-11T11:20:25;1.83;;;1.25;;
23140;SDS011;11739;54.750;9.124;2022-08-11T11:28:57;2.25;;;1.50;;
23140;SDS011;11739;54.750;9.124;2022-08-11T11:31:34;3.85;;;1.50;;
23140;SDS011;11739;54.750;9.124;2022-08-11T11:37:23;1.50;;;1.40;;
23140;SDS011;11739;54.750;9.124;2022-08-11T11:39:53;1.63;;;1.30;;
23140;SDS011;11739;54.750;9.124;2022-08-11T11:42:20;1.77;;;1.30;;
23140;SDS011;11739;54.750;9.124;2022-08-11T11:44:48;2.53;;;1.25;;
23140;SDS011;11739;54.750;9.124;2022-08-11T11:47:20;1.52;;;1.35;;
23140;SDS011;11739;54.750;9.124;2022-08-11T11:49:48;1.95;;;1.30;;
23140;SDS011;11739;54.750;9.124;2022-08-11T11:52:15;4.32;;;1.30;;
23140;SDS011;11739;54.750;9.124;2022-08-11T11:54:44;2.45;;;1.40;;
23140;SDS011;11739;54.750;9.124;2022-08-11T11:57:15;2.63;;;1.48;;
23140;SDS011;11739;54.750;9.124;2022-08-11T12:00:05;1.60;;;1.25;;
23140;SDS011;11739;54.750;9.124;2022-08-11T12:03:00;1.98;;;1.45;;
23140;SDS011;11739;54.750;9.124;2022-08-11T12:05:30;4.07;;;1.60;;
23140;SDS011;11739;54.750;9.124;2022-08-11T12:07:58;3.47;;;1.50;;
23140;SDS011;11739;54.750;9.124;2022-08-11T12:10:46;4.70;;;1.30;;
23140;SDS011;11739;54.750;9.124;2022-08-11T12:13:39;2.63;;;1.50;;
23140;SDS011;11739;54.750;9.124;2022-08-11T12:16:07;3.38;;;1.33;;
23140;SDS011;11739;54.750;9.124;2022-08-11T12:18:56;1.30;;;1.20;;
23140;SDS011;11739;54.750;9.124;2022-08-11T12:21:25;5.00;;;1.52;;
23140;SDS011;11739;54.750;9.124;2022-08-11T12:23:54;2.08;;;1.40;;
23140;SDS011;11739;54.750;9.124;2022-08-11T12:26:43;1.30;;;1.20;;
23140;SDS011;11739;54.750;9.124;2022-08-11T12:29:43;2.35;;;1.35;;
23140;SDS011;11739;54.750;9.124;2022-08-11T12:32:11;1.70;;;1.58;;
23140;SDS011;11739;54.750;9.124;2022-08-11T12:34:38;2.72;;;1.70;;
23140;SDS011;11739;54.750;9.124;2022-08-11T12:37:04;3.28;;;1.27;;
23140;SDS011;11739;54.750;9.124;2022-08-11T12:39:40;3.20;;;1.60;;
23140;SDS011;11739;54.750;9.124;2022-08-11T12:42:48;1.65;;;1.30;;
23140;SDS011;11739;54.750;9.124;2022-08-11T12:45:47;1.73;;;1.35;;
23140;SDS011;11739;54.750;9.124;2022-08-11T12:48:24;1.60;;;1.27;;
23140;SDS011;11739;54.750;9.124;2022-08-11T12:51:28;3.47;;;1.52;;
23140;SDS011;11739;54.750;9.124;2022-08-11T12:54:40;1.83;;;1.52;;
23140;SDS011;11739;54.750;9.124;2022-08-11T12:57:14;2.83;;;1.50;;
23140;SDS011;11739;54.750;9.124;2022-08-11T13:00:04;5.20;;;1.30;;
23140;SDS011;11739;54.750;9.124;2022-08-11T13:02:49;3.97;;;1.35;;
23140;SDS011;11739;54.750;9.124;2022-08-11T13:05:34;2.13;;;1.40;;
23140;SDS011;11739;54.750;9.124;2022-08-11T13:08:09;5.07;;;1.50;;
23140;SDS011;11739;54.750;9.124;2022-08-11T13:10:36;2.67;;;1.42;;
23140;SDS011;11739;54.750;9.124;2022-08-11T13:13:22;4.35;;;1.48;;
23140;SDS011;11739;54.750;9.124;2022-08-11T13:16:09;4.03;;;1.23;;
23140;SDS011;11739;54.750;9.124;2022-08-11T13:18:37;2.08;;;1.48;;
23140;SDS011;11739;54.750;9.124;2022-08-11T13:21:08;1.65;;;1.50;;
23140;SDS011;11739;54.750;9.124;2022-08-11T13:23:46;1.30;;;1.20;;
23140;SDS011;11739;54.750;9.124;2022-08-11T13:26:31;2.83;;;1.40;;
23140;SDS011;11739;54.750;9.124;2022-08-11T13:29:22;3.30;;;1.67;;
23140;SDS011;11739;54.750;9.124;2022-08-11T13:31:51;1.45;;;1.30;;
23140;SDS011;11739;54.750;9.124;2022-08-11T13:34:19;3.58;;;1.70;;
23140;SDS011;11739;54.750;9.124;2022-08-11T13:36:48;3.88;;;1.75;;
23140;SDS011;11739;54.750;9.124;2022-08-11T13:39:17;2.28;;;1.60;;
23140;SDS011;11739;54.750;9.124;2022-08-11T13:41:45;3.75;;;1.63;;
23140;SDS011;11739;54.750;9.124;2022-08-11T13:44:14;2.83;;;1.67;;
23140;SDS011;11739;54.750;9.124;2022-08-11T13:46:50;2.13;;;1.52;;
23140;SDS011;11739;54.750;9.124;2022-08-11T13:49:18;5.25;;;1.38;;
23140;SDS011;11739;54.750;9.124;2022-08-11T13:51:46;3.00;;;1.55;;
23140;SDS011;11739;54.750;9.124;2022-08-11T13:54:20;3.72;;;1.70;;
23140;SDS011;11739;54.750;9.124;2022-08-11T13:56:52;3.85;;;1.70;;
23140;SDS011;11739;54.750;9.124;2022-08-11T13:59:20;2.80;;;1.50;;
23140;SDS011;11739;54.750;9.124;2022-08-11T14:01:57;2.13;;;1.90;;
23140;SDS011;11739;54.750;9.124;2022-08-11T14:04:56;4.40;;;1.83;;
23140;SDS011;11739;54.750;9.124;2022-08-11T14:07:24;1.98;;;1.52;;
23140;SDS011;11739;54.750;9.124;2022-08-11T14:09:57;2.83;;;1.70;;
23140;SDS011;11739;54.750;9.124;2022-08-11T14:12:25;1.73;;;1.50;;
23140;SDS011;11739;54.750;9.124;2022-08-11T14:15:15;1.70;;;1.58;;
23140;SDS011;11739;54.750;9.124;2022-08-11T14:17:47;1.52;;;1.42;;
23140;SDS011;11739;54.750;9.124;2022-08-11T14:20:28;2.08;;;1.67;;
23140;SDS011;11739;54.750;9.124;2022-08-11T14:23:21;2.03;;;1.70;;
23140;SDS011;11739;54.750;9.124;2022-08-11T14:25:53;3.25;;;1.83;;
23140;SDS011;11739;54.750;9.124;2022-08-11T14:28:38;1.60;;;1.50;;
23140;SDS011;11739;54.750;9.124;2022-08-11T14:31:10;3.45;;;1.90;;
23140;SDS011;11739;54.750;9.124;2022-08-11T14:33:38;5.65;;;1.73;;
23140;SDS011;11739;54.750;9.124;2022-08-11T14:36:26;2.70;;;1.73;;
23140;SDS011;11739;54.750;9.124;2022-08-11T14:38:55;2.95;;;1.60;;
23140;SDS011;11739;54.750;9.124;2022-08-11T14:41:22;3.55;;;1.60;;
23140;SDS011;11739;54.750;9.124;2022-08-11T14:44:29;3.55;;;1.48;;
23140;SDS011;11739;54.750;9.124;2022-08-11T14:47:16;6.32;;;2.40;;
23140;SDS011;11739;54.750;9.124;2022-08-11T14:49:49;6.18;;;1.90;;
23140;SDS011;11739;54.750;9.124;2022-08-11T14:52:35;4.90;;;1.48;;
23140;SDS011;11739;54.750;9.124;2022-08-11T14:55:02;2.58;;;1.58;;
23140;SDS011;11739;54.750;9.124;2022-08-11T14:57:47;5.95;;;2.28;;
23140;SDS011;11739;54.750;9.124;2022-08-11T15:00:21;4.47;;;1.88;;
23140;SDS011;11739;54.750;9.124;2022-08-11T15:02:48;4.38;;;1.90;;
23140;SDS011;11739;54.750;9.124;2022-08-11T15:05:33;4.13;;;1.60;;
23140;SDS011;11739;54.750;9.124;2022-08-11T15:08:01;5.03;;;1.75;;
23140;SDS011;11739;54.750;9.124;2022-08-11T15:10:28;3.08;;;1.75;;
23140;SDS011;11739;54.750;9.124;2022-08-11T15:12:54;4.22;;;1.80;;
23140;SDS011;11739;54.750;9.124;2022-08-11T15:15:21;6.88;;;2.00;;
23140;SDS011;11739;54.750;9.124;2022-08-11T15:18:09;3.35;;;1.60;;
23140;SDS011;11739;54.750;9.124;2022-08-11T15:20:39;4.50;;;2.00;;
23140;SDS011;11739;54.750;9.124;2022-08-11T15:23:24;4.95;;;2.05;;
23140;SDS011;11739;54.750;9.124;2022-08-11T15:28:43;2.38;;;1.83;;
23140;SDS011;11739;54.750;9.124;2022-08-11T15:31:30;3.60;;;1.65;;
23140;SDS011;11739;54.750;9.124;2022-08-11T15:34:17;3.95;;;1.88;;
23140;SDS011;11739;54.750;9.124;2022-08-11T15:37:06;2.45;;;1.67;;
23140;SDS011;11739;54.750;9.124;2022-08-11T15:43:13;1.73;;;1.63;;
23140;SDS011;11739;54.750;9.124;2022-08-11T15:46:02;5.55;;;2.30;;
23140;SDS011;11739;54.750;9.124;2022-08-11T15:48:43;10.88;;;2.00;;
23140;SDS011;11739;54.750;9.124;2022-08-11T15:51:17;8.27;;;1.90;;
23140;SDS011;11739;54.750;9.124;2022-08-11T15:53:52;3.92;;;1.52;;
23140;SDS011;11739;54.750;9.124;2022-08-11T15:56:23;4.60;;;1.95;;
23140;SDS011;11739;54.750;9.124;2022-08-11T15:58:51;3.10;;;2.00;;
23140;SDS011;11739;54.750;9.124;2022-08-11T16:01:57;4.03;;;1.88;;
23140;SDS011;11739;54.750;9.124;2022-08-11T16:04:44;5.10;;;1.70;;
23140;SDS011;11739;54.750;9.124;2022-08-11T16:07:13;4.78;;;1.90;;
23140;SDS011;11739;54.750;9.124;2022-08-11T16:09:41;2.38;;;1.60;;
23140;SDS011;11739;54.750;9.124;2022-08-11T16:14:58;7.88;;;1.80;;
23140;SDS011;11739;54.750;9.124;2022-08-11T16:17:47;6.50;;;1.90;;
23140;SDS011;11739;54.750;9.124;2022-08-11T16:20:20;3.22;;;1.70;;
23140;SDS011;11739;54.750;9.124;2022-08-11T16:22:49;3.20;;;1.70;;
23140;SDS011;11739;54.750;9.124;2022-08-11T16:25:27;4.63;;;1.92;;
23140;SDS011;11739;54.750;9.124;2022-08-11T16:28:15;2.65;;;1.50;;
23140;SDS011;11739;54.750;9.124;2022-08-11T16:30:41;5.43;;;1.75;;
23140;SDS011;11739;54.750;9.124;2022-08-11T16:33:11;3.38;;;1.60;;
23140;SDS011;11739;54.750;9.124;2022-08-11T16:35:58;4.22;;;1.67;;
23140;SDS011;11739;54.750;9.124;2022-08-11T16:38:43;2.17;;;1.50;;
23140;SDS011;11739;54.750;9.124;2022-08-11T16:41:11;3.70;;;1.63;;
23140;SDS011;11739;54.750;9.124;2022-08-11T16:43:43;3.17;;;1.73;;
23140;SDS011;11739;54.750;9.124;2022-08-11T16:46:29;2.05;;;1.75;;
23140;SDS011;11739;54.750;9.124;2022-08-11T16:49:15;4.43;;;1.60;;
23140;SDS011;11739;54.750;9.124;2022-08-11T16:51:43;4.15;;;1.80;;
23140;SDS011;11739;54.750;9.124;2022-08-11T16:54:10;3.53;;;1.60;;
23140;SDS011;11739;54.750;9.124;2022-08-11T16:56:38;1.88;;;1.50;;
23140;SDS011;11739;54.750;9.124;2022-08-11T16:59:28;1.60;;;1.50;;
23140;SDS011;11739;54.750;9.124;2022-08-11T17:01:57;3.58;;;1.50;;
23140;SDS011;11739;54.750;9.124;2022-08-11T17:04:28;4.45;;;1.65;;
23140;SDS011;11739;54.750;9.124;2022-08-11T17:07:16;3.00;;;1.45;;
23140;SDS011;11739;54.750;9.124;2022-08-11T17:10:29;1.70;;;1.60;;
23140;SDS011;11739;54.750;9.124;2022-08-11T17:13:27;3.08;;;1.50;;
23140;SDS011;11739;54.750;9.124;2022-08-11T17:15:56;3.75;;;1.80;;
23140;SDS011;11739;54.750;9.124;2022-08-11T17:18:57;6.55;;;2.03;;
23140;SDS011;11739;54.750;9.124;2022-08-11T17:21:30;5.70;;;1.80;;
23140;SDS011;11739;54.750;9.124;2022-08-11T17:26:38;2.97;;;1.48;;
23140;SDS011;11739;54.750;9.124;2022-08-11T17:29:28;10.02;;;1.70;;
23140;SDS011;11739;54.750;9.124;2022-08-11T17:32:01;7.30;;;1.60;;
23140;SDS011;11739;54.750;9.124;2022-08-11T17:34:48;3.40;;;1.52;;
23140;SDS011;11739;54.750;9.124;2022-08-11T17:37:35;1.60;;;1.50;;
23140;SDS011;11739;54.750;9.124;2022-08-11T17:40:05;2.38;;;1.50;;
23140;SDS011;11739;54.750;9.124;2022-08-11T17:42:33;6.53;;;1.77;;
23140;SDS011;11739;54.750;9.124;2022-08-11T17:45:19;2.03;;;1.83;;
23140;SDS011;11739;54.750;9.124;2022-08-11T17:48:05;5.05;;;1.80;;
23140;SDS011;11739;54.750;9.124;2022-08-11T17:50:58;7.53;;;1.67;;
23140;SDS011;11739;54.750;9.124;2022-08-11T17:53:27;1.70;;;1.60;;
23140;SDS011;11739;54.750;9.124;2022-08-11T17:56:33;6.45;;;1.80;;
23140;SDS011;11739;54.750;9.124;2022-08-11T17:59:19;2.25;;;1.60;;
23140;SDS011;11739;54.750;9.124;2022-08-11T18:02:08;1.70;;;1.55;;
23140;SDS011;11739;54.750;9.124;2022-08-11T18:05:00;3.90;;;1.50;;
23140;SDS011;11739;54.750;9.124;2022-08-11T18:07:27;4.93;;;1.52;;
23140;SDS011;11739;54.750;9.124;2022-08-11T18:10:13;2.17;;;1.52;;
23140;SDS011;11739;54.750;9.124;2022-08-11T18:13:05;2.83;;;1.60;;
23140;SDS011;11739;54.750;9.124;2022-08-11T18:15:50;4.38;;;1.80;;
23140;SDS011;11739;54.750;9.124;2022-08-11T18:18:35;5.18;;;1.75;;
23140;SDS011;11739;54.750;9.124;2022-08-11T18:21:20;1.67;;;1.30;;
23140;SDS011;11739;54.750;9.124;2022-08-11T18:24:07;2.65;;;1.80;;
23140;SDS011;11739;54.750;9.124;2022-08-11T18:26:57;4.20;;;1.70;;
23140;SDS011;11739;54.750;9.124;2022-08-11T18:29:47;2.03;;;1.60;;
23140;SDS011;11739;54.750;9.124;2022-08-11T18:32:33;2.03;;;1.52;;
23140;SDS011;11739;54.750;9.124;2022-08-11T18:35:40;3.85;;;1.73;;
23140;SDS011;11739;54.750;9.124;2022-08-11T18:38:26;3.30;;;1.45;;
23140;SDS011;11739;54.750;9.124;2022-08-11T18:41:12;4.45;;;1.70;;
23140;SDS011;11739;54.750;9.124;2022-08-11T18:43:58;2.22;;;1.60;;
23140;SDS011;11739;54.750;9.124;2022-08-11T18:46:47;3.17;;;1.48;;
23140;SDS011;11739;54.750;9.124;2022-08-11T18:49:34;3.40;;;1.67;;
23140;SDS011;11739;54.750;9.124;2022-08-11T18:52:29;8.95;;;2.20;;
23140;SDS011;11739;54.750;9.124;2022-08-11T18:55:15;10.73;;;2.55;;
23140;SDS011;11739;54.750;9.124;2022-08-11T18:58:02;7.60;;;1.95;;
23140;SDS011;11739;54.750;9.124;2022-08-11T19:00:49;7.25;;;2.13;;
23140;SDS011;11739;54.750;9.124;2022-08-11T19:03:34;6.20;;;2.08;;
23140;SDS011;11739;54.750;9.124;2022-08-11T19:06:35;8.57;;;2.00;;
23140;SDS011;11739;54.750;9.124;2022-08-11T19:09:20;3.88;;;1.80;;
23140;SDS011;11739;54.750;9.124;2022-08-11T19:12:07;7.75;;;1.88;;
23140;SDS011;11739;54.750;9.124;2022-08-11T19:14:55;6.07;;;1.73;;